createdAt,value
2019-01-26T00:00:03.214Z,1016.8
2019-01-26T00:01:03.868Z,1016.6
2019-01-26T00:02:03.534Z,1016.6
2019-01-26T00:03:02.935Z,1016.6
2019-01-26T00:04:03.217Z,1016.5
2019-01-26T00:05:03.465Z,1016.5
2019-01-26T00:06:03.844Z,1016.5
2019-01-26T00:07:03.883Z,1016.8
2019-01-26T00:08:03.037Z,1016.8
2019-01-26T00:09:03.370Z,1016.6
2019-01-26T00:10:03.681Z,1016.6
2019-01-26T00:11:03.586Z,1016.6
2019-01-26T00:12:03.208Z,1016.6
2019-01-26T00:13:03.358Z,1016.6
2019-01-26T00:14:03.102Z,1016.5
2019-01-26T00:15:03.250Z,1016.5
2019-01-26T00:16:02.959Z,1016.5
2019-01-26T00:17:03.091Z,1016.4
2019-01-26T00:18:03.498Z,1016.4
2019-01-26T00:19:03.514Z,1016.4
2019-01-26T00:20:02.891Z,1016.4
2019-01-26T00:21:03.350Z,1016.5
2019-01-26T00:22:02.907Z,1016.4
2019-01-26T00:23:03.632Z,1016.3
2019-01-26T00:24:03.788Z,1016.3
2019-01-26T00:25:03.556Z,1016.3
2019-01-26T00:26:03.696Z,1016.3
2019-01-26T00:27:03.767Z,1016.4
2019-01-26T00:28:02.948Z,1016.4
2019-01-26T00:29:03.046Z,1016.4
2019-01-26T00:30:03.484Z,1016.4
2019-01-26T00:31:03.398Z,1016.4
2019-01-26T00:32:03.481Z,1016.3
2019-01-26T00:33:03.407Z,1016.3
2019-01-26T00:34:03.315Z,1016.3
2019-01-26T00:35:03.437Z,1016.4
2019-01-26T00:36:02.889Z,1016.4
2019-01-26T00:37:02.377Z,1016.5
2019-01-26T00:38:03.591Z,1016.4
2019-01-26T00:39:03.600Z,1016.4
2019-01-26T00:40:03.558Z,1016.4
2019-01-26T00:41:03.711Z,1016.4
2019-01-26T00:42:03.846Z,1016.4
2019-01-26T00:43:03.770Z,1016.5
2019-01-26T00:44:03.410Z,1016.5
2019-01-26T00:45:03.804Z,1016.5
2019-01-26T00:46:03.123Z,1016.5
2019-01-26T00:47:03.228Z,1016.5
2019-01-26T00:48:03.549Z,1016.4
2019-01-26T00:49:03.778Z,1016.4
2019-01-26T00:50:03.614Z,1016.4
2019-01-26T00:51:03.374Z,1016.4
2019-01-26T00:52:03.174Z,1016.4
2019-01-26T00:53:03.376Z,1016.4
2019-01-26T00:54:03.470Z,1016.4
2019-01-26T00:55:03.155Z,1016.4
2019-01-26T00:56:03.075Z,1016.4
2019-01-26T00:57:03.293Z,1016.5
2019-01-26T00:58:02.854Z,1016.4
2019-01-26T00:59:04.026Z,1016.5
2019-01-26T01:00:03.702Z,1016.5
2019-01-26T01:01:03.218Z,1016.4
2019-01-26T01:02:03.590Z,1016.4
2019-01-26T01:03:03.645Z,1016.4
2019-01-26T01:04:03.179Z,1016.4
2019-01-26T01:05:03.227Z,1016.2
2019-01-26T01:06:03.499Z,1016.2
2019-01-26T01:07:03.618Z,1016.4
2019-01-26T01:08:03.781Z,1016.4
2019-01-26T01:09:02.987Z,1016.4
2019-01-26T01:10:03.443Z,1016.4
2019-01-26T01:11:03.665Z,1016.4
2019-01-26T01:12:03.122Z,1016.5
2019-01-26T01:13:03.195Z,1016.4
2019-01-26T01:14:03.804Z,1016.3
2019-01-26T01:15:03.883Z,1016.3
2019-01-26T01:16:03.111Z,1016.2
2019-01-26T01:17:03.687Z,1016.2
2019-01-26T01:18:03.278Z,1016.2
2019-01-26T01:19:03.510Z,1016.2
2019-01-26T01:20:04.095Z,1016.2
2019-01-26T01:21:03.506Z,1016.2
2019-01-26T01:22:03.254Z,1016.2
2019-01-26T01:23:03.738Z,1016.1
2019-01-26T01:24:02.117Z,1016.1
2019-01-26T01:25:02.917Z,1016
2019-01-26T01:26:04.467Z,1016
2019-01-26T01:27:03.715Z,1016.1
2019-01-26T01:28:03.347Z,1016.1
2019-01-26T01:29:03.097Z,1016.2
2019-01-26T01:30:03.576Z,1016.1
2019-01-26T01:31:03.857Z,1016.1
2019-01-26T01:32:03.313Z,1016.1
2019-01-26T01:33:03.687Z,1016.1
2019-01-26T01:34:03.379Z,1016.1
2019-01-26T01:35:03.577Z,1016
2019-01-26T01:36:03.823Z,1016.1
2019-01-26T01:37:03.447Z,1016.1
2019-01-26T01:38:03.670Z,1016.1
2019-01-26T01:39:03.772Z,1016
2019-01-26T01:40:04.049Z,1016
2019-01-26T01:41:03.586Z,1016
2019-01-26T01:42:03.698Z,1016
2019-01-26T01:43:03.283Z,1016
2019-01-26T01:44:03.680Z,1016
2019-01-26T01:45:02.377Z,1016
2019-01-26T01:46:02.237Z,1015.8
2019-01-26T01:47:02.466Z,1015.8
2019-01-26T01:48:03.597Z,1016
2019-01-26T01:49:03.229Z,1015.9
2019-01-26T01:50:03.605Z,1015.9
2019-01-26T01:51:03.633Z,1015.9
2019-01-26T01:52:03.708Z,1015.7
2019-01-26T01:53:03.583Z,1016
2019-01-26T01:54:03.174Z,1016
2019-01-26T01:55:03.215Z,1015.8
2019-01-26T01:56:03.271Z,1015.8
2019-01-26T01:57:03.078Z,1015.8
2019-01-26T01:58:03.772Z,1015.7
2019-01-26T01:59:03.628Z,1015.8
2019-01-26T02:00:03.777Z,1015.8
2019-01-26T02:01:03.547Z,1015.7
2019-01-26T02:02:03.103Z,1015.7
2019-01-26T02:03:03.857Z,1015.7
2019-01-26T02:04:03.378Z,1015.7
2019-01-26T02:05:03.934Z,1015.7
2019-01-26T02:06:02.706Z,1015.7
2019-01-26T02:07:03.378Z,1015.6
2019-01-26T02:08:04.037Z,1015.8
2019-01-26T02:09:03.554Z,1015.6
2019-01-26T02:10:03.788Z,1015.6
2019-01-26T02:11:03.445Z,1015.6
2019-01-26T02:12:03.763Z,1015.7
2019-01-26T02:13:03.095Z,1015.7
2019-01-26T02:14:03.005Z,1015.5
2019-01-26T02:15:03.211Z,1015.6
2019-01-26T02:16:02.927Z,1015.6
2019-01-26T02:17:03.697Z,1015.5
2019-01-26T02:18:03.116Z,1015.5
2019-01-26T02:19:03.444Z,1015.6
2019-01-26T02:20:03.806Z,1015.5
2019-01-26T02:21:03.669Z,1015.5
2019-01-26T02:22:03.208Z,1015.5
2019-01-26T02:23:03.744Z,1015.3
2019-01-26T02:24:03.434Z,1015.3
2019-01-26T02:25:03.466Z,1015.2
2019-01-26T02:26:03.640Z,1015.4
2019-01-26T02:27:03.295Z,1015.2
2019-01-26T02:28:02.025Z,1015.1
2019-01-26T02:29:03.898Z,1015.2
2019-01-26T02:30:03.781Z,1015
2019-01-26T02:31:03.407Z,1015.1
2019-01-26T02:32:03.444Z,1015.1
2019-01-26T02:33:04.029Z,1015
2019-01-26T02:34:03.565Z,1015
2019-01-26T02:35:03.610Z,1015
2019-01-26T02:36:03.679Z,1014.9
2019-01-26T02:37:03.230Z,1015
2019-01-26T02:38:03.805Z,1014.9
2019-01-26T02:39:03.455Z,1014.9
2019-01-26T02:40:03.636Z,1014.8
2019-01-26T02:41:03.376Z,1014.8
2019-01-26T02:42:03.082Z,1014.8
2019-01-26T02:43:03.713Z,1014.7
2019-01-26T02:44:03.729Z,1014.7
2019-01-26T02:45:03.413Z,1014.7
2019-01-26T02:46:04.378Z,1014.7
2019-01-26T02:47:03.457Z,1014.7
2019-01-26T02:48:03.428Z,1014.7
2019-01-26T02:49:03.092Z,1014.5
2019-01-26T02:50:03.487Z,1014.5
2019-01-26T02:51:02.138Z,1014.6
2019-01-26T02:52:03.409Z,1014.6
2019-01-26T02:53:03.592Z,1014.5
2019-01-26T02:54:03.238Z,1014.4
2019-01-26T02:55:03.150Z,1014.5
2019-01-26T02:56:03.919Z,1014.5
2019-01-26T02:57:02.885Z,1014.4
2019-01-26T02:58:03.217Z,1014.5
2019-01-26T02:59:03.571Z,1014.5
2019-01-26T03:00:03.669Z,1014.5
2019-01-26T03:01:03.002Z,1014.5
2019-01-26T03:02:03.073Z,1014.6
2019-01-26T03:03:03.827Z,1014.6
2019-01-26T03:04:03.683Z,1014.5
2019-01-26T03:05:03.337Z,1014.6
2019-01-26T03:06:03.089Z,1014.6
2019-01-26T03:07:03.302Z,1014.6
2019-01-26T03:08:03.528Z,1014.5
2019-01-26T03:09:03.190Z,1014.5
2019-01-26T03:10:03.479Z,1014.3
2019-01-26T03:11:03.023Z,1014.3
2019-01-26T03:12:03.760Z,1014.3
2019-01-26T03:13:03.478Z,1014.3
2019-01-26T03:14:03.339Z,1014.3
2019-01-26T03:15:03.478Z,1014.2
2019-01-26T03:16:03.094Z,1014.4
2019-01-26T03:17:06.855Z,1014.3
2019-01-26T03:18:03.514Z,1014.3
2019-01-26T03:19:03.535Z,1014.2
2019-01-26T03:20:02.986Z,1014.1
2019-01-26T03:21:03.497Z,1014.1
2019-01-26T03:22:03.467Z,1014.1
2019-01-26T03:23:03.970Z,1014
2019-01-26T03:24:02.965Z,1014
2019-01-26T03:25:03.518Z,1014
2019-01-26T03:26:03.421Z,1013.8
2019-01-26T03:27:03.201Z,1013.8
2019-01-26T03:28:02.970Z,1013.9
2019-01-26T03:29:03.425Z,1013.9
2019-01-26T03:30:03.355Z,1013.8
2019-01-26T03:31:04.035Z,1013.8
2019-01-26T03:32:03.267Z,1013.8
2019-01-26T03:33:03.225Z,1013.8
2019-01-26T03:34:03.051Z,1013.9
2019-01-26T03:35:03.427Z,1013.9
2019-01-26T03:36:03.631Z,1013.9
2019-01-26T03:37:03.768Z,1013.9
2019-01-26T03:38:03.040Z,1013.9
2019-01-26T03:39:03.509Z,1013.9
2019-01-26T03:40:03.813Z,1013.9
2019-01-26T03:41:03.126Z,1014
2019-01-26T03:42:03.797Z,1014
2019-01-26T03:43:03.662Z,1014.1
2019-01-26T03:44:03.497Z,1014
2019-01-26T03:45:04.347Z,1014
2019-01-26T03:46:03.550Z,1014
2019-01-26T03:47:03.740Z,1014
2019-01-26T03:48:03.186Z,1014
2019-01-26T03:49:03.908Z,1013.9
2019-01-26T03:50:03.558Z,1013.9
2019-01-26T03:51:02.955Z,1013.9
2019-01-26T03:52:03.532Z,1013.9
2019-01-26T03:53:03.046Z,1013.9
2019-01-26T03:54:03.057Z,1014
2019-01-26T03:55:03.222Z,1013.9
2019-01-26T03:56:03.374Z,1014
2019-01-26T03:57:03.175Z,1013.9
2019-01-26T03:58:02.310Z,1013.8
2019-01-26T03:59:03.700Z,1013.9
2019-01-26T04:00:03.469Z,1013.8
2019-01-26T04:01:03.992Z,1013.9
2019-01-26T04:02:03.791Z,1013.9
2019-01-26T04:03:03.087Z,1013.9
2019-01-26T04:04:03.027Z,1013.8
2019-01-26T04:05:03.618Z,1013.8
2019-01-26T04:06:03.782Z,1013.8
2019-01-26T04:07:03.780Z,1013.7
2019-01-26T04:08:03.032Z,1013.7
2019-01-26T04:09:03.623Z,1013.8
2019-01-26T04:10:03.211Z,1013.8
2019-01-26T04:11:03.733Z,1013.8
2019-01-26T04:12:03.300Z,1013.8
2019-01-26T04:13:02.933Z,1013.8
2019-01-26T04:14:03.728Z,1013.8
2019-01-26T04:15:03.302Z,1013.8
2019-01-26T04:16:03.529Z,1013.8
2019-01-26T04:17:03.809Z,1013.8
2019-01-26T04:18:03.572Z,1013.8
2019-01-26T04:19:03.649Z,1013.8
2019-01-26T04:20:03.259Z,1013.7
2019-01-26T04:21:02.955Z,1013.7
2019-01-26T04:22:02.811Z,1013.6
2019-01-26T04:23:02.406Z,1013.6
2019-01-26T04:24:03.464Z,1013.6
2019-01-26T04:25:03.430Z,1013.6
2019-01-26T04:26:02.214Z,1013.5
2019-01-26T04:27:03.163Z,1013.5
2019-01-26T04:28:03.051Z,1013.5
2019-01-26T04:29:03.116Z,1013.6
2019-01-26T04:30:02.565Z,1013.5
2019-01-26T04:31:03.876Z,1013.5
2019-01-26T04:32:03.710Z,1013.5
2019-01-26T04:33:03.119Z,1013.6
2019-01-26T04:34:02.970Z,1013.6
2019-01-26T04:35:03.260Z,1013.4
2019-01-26T04:36:03.659Z,1013.4
2019-01-26T04:37:03.805Z,1013.5
2019-01-26T04:38:04.186Z,1013.5
2019-01-26T04:39:02.896Z,1013.4
2019-01-26T04:40:03.684Z,1013.5
2019-01-26T04:41:03.730Z,1013.5
2019-01-26T04:42:03.079Z,1013.3
2019-01-26T04:43:03.560Z,1013.3
2019-01-26T04:44:03.918Z,1013.4
2019-01-26T04:45:03.358Z,1013.4
2019-01-26T04:46:03.417Z,1013.3
2019-01-26T04:47:03.177Z,1013.2
2019-01-26T04:48:03.726Z,1013.4
2019-01-26T04:49:02.619Z,1013.2
2019-01-26T04:50:03.240Z,1013.2
2019-01-26T04:51:03.880Z,1013.2
2019-01-26T04:52:03.100Z,1013.3
2019-01-26T04:53:03.839Z,1013.1
2019-01-26T04:54:03.055Z,1013.1
2019-01-26T04:55:03.780Z,1013.1
2019-01-26T04:56:03.711Z,1013.1
2019-01-26T04:57:03.856Z,1013.1
2019-01-26T04:58:03.247Z,1013.1
2019-01-26T04:59:03.049Z,1013
2019-01-26T05:00:03.576Z,1013
2019-01-26T05:01:03.685Z,1013
2019-01-26T05:02:03.383Z,1013
2019-01-26T05:03:03.215Z,1013
2019-01-26T05:04:04.003Z,1013
2019-01-26T05:05:03.752Z,1012.9
2019-01-26T05:06:03.124Z,1012.9
2019-01-26T05:07:03.754Z,1012.9
2019-01-26T05:08:03.798Z,1012.9
2019-01-26T05:09:03.685Z,1012.9
2019-01-26T05:10:03.786Z,1013
2019-01-26T05:11:03.482Z,1013
2019-01-26T05:12:02.960Z,1012.9
2019-01-26T05:13:03.390Z,1013
2019-01-26T05:14:03.341Z,1013
2019-01-26T05:15:03.228Z,1012.8
2019-01-26T05:16:03.212Z,1012.8
2019-01-26T05:17:03.029Z,1012.8
2019-01-26T05:18:03.137Z,1012.7
2019-01-26T05:19:03.433Z,1012.8
2019-01-26T05:20:03.406Z,1012.9
2019-01-26T05:21:03.648Z,1012.8
2019-01-26T05:22:03.806Z,1012.8
2019-01-26T05:23:03.603Z,1012.8
2019-01-26T05:24:03.156Z,1012.8
2019-01-26T05:25:03.071Z,1012.7
2019-01-26T05:26:03.913Z,1012.7
2019-01-26T05:27:03.382Z,1012.8
2019-01-26T05:28:03.951Z,1012.8
2019-01-26T05:29:03.139Z,1012.8
2019-01-26T05:30:03.834Z,1012.8
2019-01-26T05:31:03.646Z,1012.6
2019-01-26T05:32:03.096Z,1012.6
2019-01-26T05:33:03.573Z,1012.6
2019-01-26T05:34:03.175Z,1012.7
2019-01-26T05:35:02.751Z,1012.6
2019-01-26T05:36:03.048Z,1012.6
2019-01-26T05:37:03.184Z,1012.6
2019-01-26T05:38:03.554Z,1012.7
2019-01-26T05:39:03.484Z,1012.6
2019-01-26T05:40:03.312Z,1012.6
2019-01-26T05:41:03.145Z,1012.7
2019-01-26T05:42:03.272Z,1012.6
2019-01-26T05:43:03.783Z,1012.6
2019-01-26T05:44:03.505Z,1012.6
2019-01-26T05:45:03.956Z,1012.6
2019-01-26T05:46:03.681Z,1012.6
2019-01-26T05:47:03.257Z,1012.5
2019-01-26T05:48:03.873Z,1012.5
2019-01-26T05:49:03.957Z,1012.5
2019-01-26T05:50:03.765Z,1012.5
2019-01-26T05:51:03.808Z,1012.5
2019-01-26T05:52:03.840Z,1012.5
2019-01-26T05:53:03.864Z,1012.4
2019-01-26T05:54:03.355Z,1012.4
2019-01-26T05:55:03.387Z,1012.5
2019-01-26T05:56:03.857Z,1012.4
2019-01-26T05:57:03.095Z,1012.5
2019-01-26T05:58:03.888Z,1012.5
2019-01-26T05:59:03.435Z,1012.4
2019-01-26T06:00:03.113Z,1012.5
2019-01-26T06:01:03.953Z,1012.5
2019-01-26T06:02:03.114Z,1012.4
2019-01-26T06:03:03.540Z,1012.5
2019-01-26T06:04:01.785Z,1012.4
2019-01-26T06:05:02.780Z,1012.5
2019-01-26T06:06:03.537Z,1012.4
2019-01-26T06:07:03.322Z,1012.5
2019-01-26T06:08:03.288Z,1012.4
2019-01-26T06:09:03.145Z,1012.4
2019-01-26T06:10:03.349Z,1012.4
2019-01-26T06:11:03.831Z,1012.5
2019-01-26T06:12:03.869Z,1012.4
2019-01-26T06:13:03.654Z,1012.4
2019-01-26T06:14:03.944Z,1012.6
2019-01-26T06:15:03.513Z,1012.3
2019-01-26T06:16:03.185Z,1012.3
2019-01-26T06:17:03.887Z,1012.4
2019-01-26T06:18:03.626Z,1012.4
2019-01-26T06:19:03.646Z,1012.4
2019-01-26T06:20:03.383Z,1012.4
2019-01-26T06:21:03.526Z,1012.4
2019-01-26T06:22:03.638Z,1012.4
2019-01-26T06:23:03.206Z,1012.5
2019-01-26T06:24:03.144Z,1012.6
2019-01-26T06:25:03.865Z,1012.4
2019-01-26T06:26:03.847Z,1012.5
2019-01-26T06:27:03.726Z,1012.5
2019-01-26T06:28:03.359Z,1012.6
2019-01-26T06:29:03.006Z,1012.6
2019-01-26T06:30:03.830Z,1012.6
2019-01-26T06:31:02.464Z,1012.5
2019-01-26T06:32:03.385Z,1012.5
2019-01-26T06:33:03.516Z,1012.6
2019-01-26T06:34:04.050Z,1012.6
2019-01-26T06:35:02.996Z,1012.6
2019-01-26T06:36:04.115Z,1012.6
2019-01-26T06:37:03.678Z,1012.5
2019-01-26T06:38:03.799Z,1012.6
2019-01-26T06:39:03.746Z,1012.6
2019-01-26T06:40:03.190Z,1012.6
2019-01-26T06:41:03.760Z,1012.6
2019-01-26T06:42:02.771Z,1012.7
2019-01-26T06:43:03.093Z,1012.7
2019-01-26T06:44:03.496Z,1012.6
2019-01-26T06:45:03.261Z,1012.6
2019-01-26T06:46:02.737Z,1012.7
2019-01-26T06:47:03.548Z,1012.7
2019-01-26T06:48:03.269Z,1012.7
2019-01-26T06:49:03.432Z,1012.7
2019-01-26T06:50:03.114Z,1012.6
2019-01-26T06:51:03.387Z,1014.2
2019-01-26T06:52:03.953Z,1014.2
2019-01-26T06:53:03.361Z,1014.2
2019-01-26T06:54:03.903Z,1012.6
2019-01-26T06:55:03.275Z,1012.7
2019-01-26T06:56:03.186Z,1012.6
2019-01-26T06:57:03.601Z,1012.6
2019-01-26T06:58:03.295Z,1012.6
2019-01-26T06:59:03.147Z,1012.6
2019-01-26T07:00:03.813Z,1012.7
2019-01-26T07:01:03.242Z,1012.7
2019-01-26T07:02:03.909Z,1012.6
2019-01-26T07:03:03.392Z,1012.6
2019-01-26T07:04:03.683Z,1014.2
2019-01-26T07:05:03.994Z,1014.2
2019-01-26T07:06:03.981Z,1012.7
2019-01-26T07:07:03.048Z,1012.6
2019-01-26T07:08:03.548Z,1012.6
2019-01-26T07:09:03.410Z,1014.2
2019-01-26T07:10:02.445Z,1012.6
2019-01-26T07:11:03.508Z,1012.6
2019-01-26T07:12:03.472Z,1014.2
2019-01-26T07:13:03.199Z,1012.7
2019-01-26T07:14:02.992Z,1012.7
2019-01-26T07:15:03.552Z,1012.7
2019-01-26T07:16:03.297Z,1014.2
2019-01-26T07:17:04.040Z,1014.2
2019-01-26T07:18:10.168Z,1012.7
2019-01-26T07:19:03.022Z,1012.7
2019-01-26T07:20:03.405Z,1012.7
2019-01-26T07:21:03.910Z,1012.7
2019-01-26T07:22:03.372Z,1012.7
2019-01-26T07:23:03.618Z,1012.6
2019-01-26T07:24:03.235Z,1012.6
2019-01-26T07:25:03.452Z,1012.6
2019-01-26T07:26:03.456Z,1012.6
2019-01-26T07:27:03.107Z,1012.6
2019-01-26T07:28:03.354Z,1012.6
2019-01-26T07:29:02.868Z,1012.6
2019-01-26T07:30:03.536Z,1012.7
2019-01-26T07:31:03.711Z,1012.8
2019-01-26T07:32:03.287Z,1012.7
2019-01-26T07:33:02.068Z,1012.7
2019-01-26T07:34:02.247Z,1012.8
2019-01-26T07:35:03.556Z,1012.8
2019-01-26T07:36:03.491Z,1012.7
2019-01-26T07:37:03.663Z,1012.7
2019-01-26T07:38:03.761Z,1012.6
2019-01-26T07:39:03.478Z,1012.6
2019-01-26T07:40:03.813Z,1012.6
2019-01-26T07:41:03.288Z,1012.6
2019-01-26T07:42:03.009Z,1012.6
2019-01-26T07:43:03.858Z,1012.6
2019-01-26T07:44:02.932Z,1012.6
2019-01-26T07:45:03.745Z,1012.6
2019-01-26T07:46:03.633Z,1012.6
2019-01-26T07:47:03.064Z,1012.5
2019-01-26T07:48:02.978Z,1012.5
2019-01-26T07:49:03.757Z,1012.5
2019-01-26T07:50:03.793Z,1012.4
2019-01-26T07:51:03.662Z,1012.4
2019-01-26T07:52:03.327Z,1012.4
2019-01-26T07:53:03.778Z,1012.4
2019-01-26T07:54:02.853Z,1012.4
2019-01-26T07:55:03.390Z,1012.4
2019-01-26T07:56:03.372Z,1012.4
2019-01-26T07:57:03.760Z,1012.4
2019-01-26T07:58:02.203Z,1012.4
2019-01-26T07:59:01.918Z,1012.3
2019-01-26T08:00:03.083Z,1012.4
2019-01-26T08:01:03.847Z,1012.4
2019-01-26T08:02:03.112Z,1012.2
2019-01-26T08:03:03.522Z,1012.2
2019-01-26T08:04:03.163Z,1012.3
2019-01-26T08:05:02.942Z,1012.2
2019-01-26T08:06:03.045Z,1012.3
2019-01-26T08:07:03.230Z,1012.3
2019-01-26T08:08:03.844Z,1012.2
2019-01-26T08:09:03.555Z,1012.2
2019-01-26T08:10:03.595Z,1012.2
2019-01-26T08:11:03.621Z,1012
2019-01-26T08:12:03.573Z,1012
2019-01-26T08:13:03.214Z,1012
2019-01-26T08:14:03.514Z,1012.2
2019-01-26T08:15:03.416Z,1012.2
2019-01-26T08:16:03.797Z,1012.1
2019-01-26T08:17:03.508Z,1012.1
2019-01-26T08:18:03.342Z,1012.2
2019-01-26T08:19:02.893Z,1012.2
2019-01-26T08:20:03.409Z,1012.1
2019-01-26T08:21:03.898Z,1012.1
2019-01-26T08:22:02.613Z,1012.1
2019-01-26T08:23:04.081Z,1012.1
2019-01-26T08:24:03.200Z,1012.1
2019-01-26T08:25:03.174Z,1012.1
2019-01-26T08:26:02.828Z,1012.1
2019-01-26T08:27:02.956Z,1012.1
2019-01-26T08:28:02.873Z,1012.1
2019-01-26T08:29:03.269Z,1012.1
2019-01-26T08:30:03.610Z,1012.1
2019-01-26T08:31:03.138Z,1012.1
2019-01-26T08:32:02.908Z,1012.1
2019-01-26T08:33:03.749Z,1012.1
2019-01-26T08:34:04.058Z,1012
2019-01-26T08:35:03.196Z,1012
2019-01-26T08:36:02.892Z,1012
2019-01-26T08:37:03.469Z,1012
2019-01-26T08:38:03.579Z,1012
2019-01-26T08:39:03.292Z,1012.2
2019-01-26T08:40:03.363Z,1012.1
2019-01-26T08:41:04.175Z,1012.1
2019-01-26T08:42:03.244Z,1012.1
2019-01-26T08:43:03.147Z,1012
2019-01-26T08:44:03.693Z,1012.1
2019-01-26T08:45:02.429Z,1012.1
2019-01-26T08:46:03.901Z,1012.1
2019-01-26T08:47:03.174Z,1012.1
2019-01-26T08:48:03.196Z,1012
2019-01-26T08:49:03.805Z,1012
2019-01-26T08:50:03.459Z,1012
2019-01-26T08:51:03.558Z,1012.1
2019-01-26T08:52:03.554Z,1012
2019-01-26T08:53:03.919Z,1012
2019-01-26T08:54:03.538Z,1012
2019-01-26T08:55:03.248Z,1012
2019-01-26T08:56:02.996Z,1012
2019-01-26T08:57:03.071Z,1012.1
2019-01-26T08:58:03.251Z,1012
2019-01-26T08:59:03.776Z,1012
2019-01-26T09:00:03.725Z,1012
2019-01-26T09:01:03.341Z,1012
2019-01-26T09:02:03.660Z,1012
2019-01-26T09:03:03.224Z,1012
2019-01-26T09:04:03.045Z,1012
2019-01-26T09:05:03.399Z,1012
2019-01-26T09:06:03.601Z,1012
2019-01-26T09:07:03.932Z,1012
2019-01-26T09:08:03.101Z,1012.1
2019-01-26T09:09:03.748Z,1012.1
2019-01-26T09:10:03.243Z,1012
2019-01-26T09:11:03.949Z,1012
2019-01-26T09:12:02.567Z,1012
2019-01-26T09:13:03.751Z,1011.9
2019-01-26T09:14:02.627Z,1011.9
2019-01-26T09:15:03.660Z,1011.9
2019-01-26T09:16:03.883Z,1012
2019-01-26T09:17:03.779Z,1012
2019-01-26T09:18:03.070Z,1011.9
2019-01-26T09:19:03.496Z,1011.9
2019-01-26T09:20:03.409Z,1011.9
2019-01-26T09:21:03.298Z,1011.9
2019-01-26T09:22:02.991Z,1011.9
2019-01-26T09:23:03.414Z,1012
2019-01-26T09:24:03.040Z,1012
2019-01-26T09:25:03.289Z,1011.9
2019-01-26T09:26:03.620Z,1012
2019-01-26T09:27:03.219Z,1012
2019-01-26T09:28:03.564Z,1012.1
2019-01-26T09:29:03.482Z,1012.1
2019-01-26T09:30:03.615Z,1012
2019-01-26T09:31:03.166Z,1012
2019-01-26T09:32:02.505Z,1011.9
2019-01-26T09:33:03.786Z,1011.9
2019-01-26T09:34:03.284Z,1011.9
2019-01-26T09:35:02.446Z,1011.9
2019-01-26T09:36:02.089Z,1011.9
2019-01-26T09:37:02.753Z,1011.9
2019-01-26T09:38:03.048Z,1011.7
2019-01-26T09:39:03.325Z,1011.8
2019-01-26T09:40:03.400Z,1011.8
2019-01-26T09:41:02.963Z,1011.8
2019-01-26T09:42:03.264Z,1011.7
2019-01-26T09:43:03.753Z,1011.7
2019-01-26T09:44:03.241Z,1011.7
2019-01-26T09:45:03.175Z,1011.7
2019-01-26T09:46:03.486Z,1011.7
2019-01-26T09:47:03.545Z,1011.7
2019-01-26T09:48:03.813Z,1011.7
2019-01-26T09:49:03.514Z,1011.7
2019-01-26T09:50:03.417Z,1011.7
2019-01-26T09:51:04.021Z,1011.7
2019-01-26T09:52:03.407Z,1011.7
2019-01-26T09:53:03.335Z,1011.7
2019-01-26T09:54:03.543Z,1011.7
2019-01-26T09:55:02.668Z,1011.6
2019-01-26T09:56:03.236Z,1011.7
2019-01-26T09:57:03.364Z,1011.7
2019-01-26T09:58:03.951Z,1011.7
2019-01-26T09:59:03.369Z,1011.7
2019-01-26T10:00:03.518Z,1011.6
2019-01-26T10:01:03.412Z,1011.6
2019-01-26T10:02:03.334Z,1011.5
2019-01-26T10:03:03.595Z,1011.5
2019-01-26T10:04:03.181Z,1011.5
2019-01-26T10:05:03.664Z,1011.5
2019-01-26T10:06:03.935Z,1011.6
2019-01-26T10:07:02.950Z,1011.5
2019-01-26T10:08:02.438Z,1011.5
2019-01-26T10:09:03.091Z,1011.5
2019-01-26T10:10:03.462Z,1011.6
2019-01-26T10:11:03.867Z,1011.5
2019-01-26T10:12:02.416Z,1011.6
2019-01-26T10:13:03.527Z,1011.6
2019-01-26T10:14:03.331Z,1011.6
2019-01-26T10:15:03.191Z,1011.6
2019-01-26T10:16:03.689Z,1011.6
2019-01-26T10:17:03.502Z,1011.4
2019-01-26T10:18:03.202Z,1011.4
2019-01-26T10:19:03.898Z,1011.4
2019-01-26T10:20:03.659Z,1011.4
2019-01-26T10:21:03.729Z,1011.6
2019-01-26T10:22:03.551Z,1011.6
2019-01-26T10:23:03.380Z,1011.6
2019-01-26T10:24:03.505Z,1011.6
2019-01-26T10:25:03.248Z,1011.6
2019-01-26T10:26:03.739Z,1011.6
2019-01-26T10:27:03.586Z,1011.5
2019-01-26T10:28:03.189Z,1011.5
2019-01-26T10:29:03.723Z,1011.5
2019-01-26T10:30:02.963Z,1011.6
2019-01-26T10:31:03.359Z,1011.5
2019-01-26T10:32:03.910Z,1011.5
2019-01-26T10:33:03.814Z,1011.5
2019-01-26T10:34:03.825Z,1011.6
2019-01-26T10:35:03.686Z,1011.6
2019-01-26T10:36:02.908Z,1011.6
2019-01-26T10:37:03.102Z,1011.4
2019-01-26T10:38:03.419Z,1011.6
2019-01-26T10:39:03.801Z,1011.6
2019-01-26T10:40:03.254Z,1011.6
2019-01-26T10:41:03.024Z,1011.5
2019-01-26T10:42:03.533Z,1011.5
2019-01-26T10:43:03.321Z,1011.4
2019-01-26T10:44:04.044Z,1011.5
2019-01-26T10:45:02.943Z,1011.5
2019-01-26T10:46:03.997Z,1011.4
2019-01-26T10:47:03.136Z,1011.4
2019-01-26T10:48:03.105Z,1011.4
2019-01-26T10:49:03.317Z,1011.5
2019-01-26T10:50:03.593Z,1011.4
2019-01-26T10:51:02.907Z,1011.3
2019-01-26T10:52:02.865Z,1011.3
2019-01-26T10:53:02.464Z,1011.3
2019-01-26T10:54:02.708Z,1011.3
2019-01-26T10:55:02.739Z,1011.2
2019-01-26T10:56:03.380Z,1011.3
2019-01-26T10:57:02.887Z,1011.3
2019-01-26T10:58:03.339Z,1011.3
2019-01-26T10:59:03.025Z,1011.3
2019-01-26T11:00:03.885Z,1011.3
2019-01-26T11:01:03.609Z,1011.3
2019-01-26T11:02:03.730Z,1011.3
2019-01-26T11:03:03.372Z,1011.3
2019-01-26T11:04:03.024Z,1011.3
2019-01-26T11:05:03.559Z,1011.3
2019-01-26T11:06:03.244Z,1011.3
2019-01-26T11:07:03.758Z,1011.3
2019-01-26T11:08:03.154Z,1011.3
2019-01-26T11:09:03.270Z,1011.3
2019-01-26T11:10:03.442Z,1011.3
2019-01-26T11:11:03.207Z,1011.3
2019-01-26T11:12:03.177Z,1011.3
2019-01-26T11:13:03.298Z,1011.2
2019-01-26T11:14:03.631Z,1011.2
2019-01-26T11:15:03.060Z,1011.2
2019-01-26T11:16:02.953Z,1011.2
2019-01-26T11:17:03.542Z,1011.2
2019-01-26T11:18:03.549Z,1011.1
2019-01-26T11:19:08.480Z,1011.2
2019-01-26T11:20:03.890Z,1011.2
2019-01-26T11:21:03.353Z,1011.1
2019-01-26T11:22:03.128Z,1011.2
2019-01-26T11:23:03.335Z,1011.3
2019-01-26T11:24:02.250Z,1011.3
2019-01-26T11:25:02.713Z,1011.3
2019-01-26T11:26:03.783Z,1011.2
2019-01-26T11:27:03.519Z,1011.2
2019-01-26T11:28:03.695Z,1011.2
2019-01-26T11:29:03.554Z,1011.2
2019-01-26T11:30:03.258Z,1011.2
2019-01-26T11:31:03.579Z,1011.2
2019-01-26T11:32:03.682Z,1011.2
2019-01-26T11:33:02.937Z,1011.2
2019-01-26T11:34:03.006Z,1011.2
2019-01-26T11:35:03.036Z,1011.2
2019-01-26T11:36:03.681Z,1011.2
2019-01-26T11:37:03.700Z,1011.2
2019-01-26T11:38:03.331Z,1011
2019-01-26T11:39:03.625Z,1011
2019-01-26T11:40:03.789Z,1011
2019-01-26T11:41:03.544Z,1011
2019-01-26T11:42:03.577Z,1011
2019-01-26T11:43:03.780Z,1011
2019-01-26T11:44:03.580Z,1011
2019-01-26T11:45:03.715Z,1011
2019-01-26T11:46:03.129Z,1010.9
2019-01-26T11:47:03.246Z,1011
2019-01-26T11:48:03.617Z,1011
2019-01-26T11:49:02.363Z,1010.9
2019-01-26T11:50:03.525Z,1010.8
2019-01-26T11:51:03.394Z,1010.8
2019-01-26T11:52:03.167Z,1010.7
2019-01-26T11:53:03.285Z,1010.7
2019-01-26T11:54:03.121Z,1010.7
2019-01-26T11:55:03.111Z,1010.7
2019-01-26T11:56:03.339Z,1010.7
2019-01-26T11:57:02.993Z,1010.7
2019-01-26T11:58:03.276Z,1010.7
2019-01-26T11:59:03.364Z,1010.7
2019-01-26T12:00:03.782Z,1010.7
2019-01-26T12:01:03.612Z,1010.7
2019-01-26T12:02:03.573Z,1010.5
2019-01-26T12:03:04.114Z,1010.5
2019-01-26T12:04:03.362Z,1010.5
2019-01-26T12:05:03.293Z,1010.4
2019-01-26T12:06:03.884Z,1010.4
2019-01-26T12:07:03.431Z,1010.4
2019-01-26T12:08:03.392Z,1010.4
2019-01-26T12:09:03.243Z,1010.4
2019-01-26T12:10:03.790Z,1010.4
2019-01-26T12:11:03.942Z,1010.4
2019-01-26T12:12:03.225Z,1010.4
2019-01-26T12:13:03.906Z,1010.4
2019-01-26T12:14:02.025Z,1010.4
2019-01-26T12:15:03.162Z,1010.4
2019-01-26T12:16:03.848Z,1010.4
2019-01-26T12:17:03.688Z,1010.4
2019-01-26T12:18:03.023Z,1010.4
2019-01-26T12:19:03.413Z,1010.4
2019-01-26T12:20:03.357Z,1010.4
2019-01-26T12:21:04.014Z,1010.3
2019-01-26T12:22:03.575Z,1010.3
2019-01-26T12:23:03.833Z,1010.4
2019-01-26T12:24:03.443Z,1010.4
2019-01-26T12:25:03.960Z,1010.4
2019-01-26T12:26:03.208Z,1010.4
2019-01-26T12:27:03.684Z,1010.4
2019-01-26T12:28:03.075Z,1010.4
2019-01-26T12:29:03.169Z,1010.4
2019-01-26T12:30:03.070Z,1010.4
2019-01-26T12:31:03.238Z,1010.4
2019-01-26T12:32:04.018Z,1010.4
2019-01-26T12:33:02.642Z,1010.4
2019-01-26T12:34:02.278Z,1010.4